sensor_id;sensor_type;location;lat;lon;timestamp;P1;durP1;ratioP1;P2;durP2;ratioP2
52724;SDS011;38621;52.830;6.914;2023-02-03T00:01:53;3.20;;;1.40;;
52724;SDS011;38621;52.830;6.914;2023-02-03T00:04:19;6.03;;;1.25;;
52724;SDS011;38621;52.830;6.914;2023-02-03T00:06:44;3.45;;;1.27;;
52724;SDS011;38621;52.830;6.914;2023-02-03T00:09:11;7.03;;;1.67;;
52724;SDS011;38621;52.830;6.914;2023-02-03T00:11:37;4.30;;;1.13;;
52724;SDS011;38621;52.830;6.914;2023-02-03T00:14:02;3.10;;;1.45;;
52724;SDS011;38621;52.830;6.914;2023-02-03T00:16:29;3.92;;;1.40;;
52724;SDS011;38621;52.830;6.914;2023-02-03T00:18:55;4.00;;;1.42;;
52724;SDS011;38621;52.830;6.914;2023-02-03T00:21:21;2.67;;;1.52;;
52724;SDS011;38621;52.830;6.914;2023-02-03T00:23:46;2.63;;;1.20;;
52724;SDS011;38621;52.830;6.914;2023-02-03T00:26:13;4.13;;;1.10;;
52724;SDS011;38621;52.830;6.914;2023-02-03T00:28:40;3.85;;;1.55;;
52724;SDS011;38621;52.830;6.914;2023-02-03T00:31:13;3.92;;;1.60;;
52724;SDS011;38621;52.830;6.914;2023-02-03T00:33:39;2.38;;;1.05;;
52724;SDS011;38621;52.830;6.914;2023-02-03T00:36:05;3.63;;;1.05;;
52724;SDS011;38621;52.830;6.914;2023-02-03T00:38:31;5.10;;;1.30;;
52724;SDS011;38621;52.830;6.914;2023-02-03T00:40:57;4.38;;;1.33;;
52724;SDS011;38621;52.830;6.914;2023-02-03T00:43:22;2.33;;;1.05;;
52724;SDS011;38621;52.830;6.914;2023-02-03T00:45:48;2.28;;;1.13;;
52724;SDS011;38621;52.830;6.914;2023-02-03T00:48:14;2.45;;;1.15;;
52724;SDS011;38621;52.830;6.914;2023-02-03T00:50:40;2.15;;;1.38;;
52724;SDS011;38621;52.830;6.914;2023-02-03T00:53:05;2.67;;;1.35;;
52724;SDS011;38621;52.830;6.914;2023-02-03T00:55:31;3.22;;;1.40;;
52724;SDS011;38621;52.830;6.914;2023-02-03T00:57:57;4.38;;;1.83;;
52724;SDS011;38621;52.830;6.914;2023-02-03T01:00:22;4.57;;;1.77;;
52724;SDS011;38621;52.830;6.914;2023-02-03T01:02:48;4.50;;;1.70;;
52724;SDS011;38621;52.830;6.914;2023-02-03T01:05:14;4.57;;;1.65;;
52724;SDS011;38621;52.830;6.914;2023-02-03T01:07:40;2.92;;;1.65;;
52724;SDS011;38621;52.830;6.914;2023-02-03T01:10:06;5.82;;;2.05;;
52724;SDS011;38621;52.830;6.914;2023-02-03T01:12:32;3.95;;;1.95;;
52724;SDS011;38621;52.830;6.914;2023-02-03T01:14:58;6.97;;;2.28;;
52724;SDS011;38621;52.830;6.914;2023-02-03T01:17:24;4.50;;;2.20;;
52724;SDS011;38621;52.830;6.914;2023-02-03T01:19:50;4.93;;;2.00;;
52724;SDS011;38621;52.830;6.914;2023-02-03T01:22:16;3.80;;;1.95;;
52724;SDS011;38621;52.830;6.914;2023-02-03T01:24:42;4.97;;;2.28;;
52724;SDS011;38621;52.830;6.914;2023-02-03T01:27:07;3.38;;;1.90;;
52724;SDS011;38621;52.830;6.914;2023-02-03T01:29:33;5.57;;;1.75;;
52724;SDS011;38621;52.830;6.914;2023-02-03T01:31:59;7.50;;;2.55;;
52724;SDS011;38621;52.830;6.914;2023-02-03T01:34:24;8.13;;;2.72;;
52724;SDS011;38621;52.830;6.914;2023-02-03T01:36:50;4.47;;;2.08;;
52724;SDS011;38621;52.830;6.914;2023-02-03T01:39:16;7.57;;;1.85;;
52724;SDS011;38621;52.830;6.914;2023-02-03T01:41:42;7.28;;;2.08;;
52724;SDS011;38621;52.830;6.914;2023-02-03T01:47:04;6.68;;;2.13;;
52724;SDS011;38621;52.830;6.914;2023-02-03T01:49:39;5.15;;;1.67;;
52724;SDS011;38621;52.830;6.914;2023-02-03T01:52:07;6.03;;;1.75;;
52724;SDS011;38621;52.830;6.914;2023-02-03T01:54:34;4.18;;;1.88;;
52724;SDS011;38621;52.830;6.914;2023-02-03T01:57:05;4.38;;;1.83;;
52724;SDS011;38621;52.830;6.914;2023-02-03T01:59:37;5.32;;;1.60;;
52724;SDS011;38621;52.830;6.914;2023-02-03T02:02:03;4.32;;;1.50;;
52724;SDS011;38621;52.830;6.914;2023-02-03T02:04:34;4.32;;;1.60;;
52724;SDS011;38621;52.830;6.914;2023-02-03T02:07:07;7.03;;;1.77;;
52724;SDS011;38621;52.830;6.914;2023-02-03T02:09:34;6.88;;;2.78;;
52724;SDS011;38621;52.830;6.914;2023-02-03T02:12:00;5.55;;;2.17;;
52724;SDS011;38621;52.830;6.914;2023-02-03T02:14:26;4.22;;;1.70;;
52724;SDS011;38621;52.830;6.914;2023-02-03T02:22:26;4.32;;;1.70;;
52724;SDS011;38621;52.830;6.914;2023-02-03T02:25:05;4.95;;;1.63;;
52724;SDS011;38621;52.830;6.914;2023-02-03T02:30:50;6.90;;;1.98;;
52724;SDS011;38621;52.830;6.914;2023-02-03T02:39:12;4.90;;;1.40;;
52724;SDS011;38621;52.830;6.914;2023-02-03T02:44:50;4.78;;;2.08;;
52724;SDS011;38621;52.830;6.914;2023-02-03T02:47:51;2.72;;;1.50;;
52724;SDS011;38621;52.830;6.914;2023-02-03T02:50:23;4.68;;;1.75;;
52724;SDS011;38621;52.830;6.914;2023-02-03T02:52:55;3.22;;;1.33;;
52724;SDS011;38621;52.830;6.914;2023-02-03T02:55:23;3.40;;;1.55;;
52724;SDS011;38621;52.830;6.914;2023-02-03T02:57:53;3.35;;;1.10;;
52724;SDS011;38621;52.830;6.914;2023-02-03T03:00:22;4.55;;;1.35;;
52724;SDS011;38621;52.830;6.914;2023-02-03T03:02:48;7.43;;;2.42;;
52724;SDS011;38621;52.830;6.914;2023-02-03T03:05:14;5.22;;;1.73;;
52724;SDS011;38621;52.830;6.914;2023-02-03T03:07:44;4.28;;;1.52;;
52724;SDS011;38621;52.830;6.914;2023-02-03T03:10:21;7.15;;;1.95;;
52724;SDS011;38621;52.830;6.914;2023-02-03T03:12:53;5.50;;;1.70;;
52724;SDS011;38621;52.830;6.914;2023-02-03T03:15:24;4.88;;;1.92;;
52724;SDS011;38621;52.830;6.914;2023-02-03T03:18:01;5.15;;;1.67;;
52724;SDS011;38621;52.830;6.914;2023-02-03T03:20:43;5.07;;;1.52;;
52724;SDS011;38621;52.830;6.914;2023-02-03T03:23:17;5.38;;;1.92;;
52724;SDS011;38621;52.830;6.914;2023-02-03T03:25:53;4.78;;;1.50;;
52724;SDS011;38621;52.830;6.914;2023-02-03T03:28:41;4.05;;;1.13;;
52724;SDS011;38621;52.830;6.914;2023-02-03T03:31:15;2.60;;;1.20;;
52724;SDS011;38621;52.830;6.914;2023-02-03T03:33:43;4.70;;;1.60;;
52724;SDS011;38621;52.830;6.914;2023-02-03T03:36:29;5.05;;;2.00;;
52724;SDS011;38621;52.830;6.914;2023-02-03T03:39:06;3.42;;;1.60;;
52724;SDS011;38621;52.830;6.914;2023-02-03T03:44:24;4.90;;;1.77;;
52724;SDS011;38621;52.830;6.914;2023-02-03T03:46:57;5.05;;;1.60;;
52724;SDS011;38621;52.830;6.914;2023-02-03T03:49:29;4.65;;;1.60;;
52724;SDS011;38621;52.830;6.914;2023-02-03T03:51:59;4.50;;;1.50;;
52724;SDS011;38621;52.830;6.914;2023-02-03T03:54:29;5.55;;;1.92;;
52724;SDS011;38621;52.830;6.914;2023-02-03T03:57:01;5.60;;;1.77;;
52724;SDS011;38621;52.830;6.914;2023-02-03T03:59:34;7.60;;;1.60;;
52724;SDS011;38621;52.830;6.914;2023-02-03T04:02:03;4.35;;;1.20;;
52724;SDS011;38621;52.830;6.914;2023-02-03T04:04:29;3.63;;;1.45;;
52724;SDS011;38621;52.830;6.914;2023-02-03T04:06:57;4.32;;;1.50;;
52724;SDS011;38621;52.830;6.914;2023-02-03T04:09:23;3.30;;;1.33;;
52724;SDS011;38621;52.830;6.914;2023-02-03T04:11:49;4.95;;;1.05;;
52724;SDS011;38621;52.830;6.914;2023-02-03T04:14:27;6.72;;;1.75;;
52724;SDS011;38621;52.830;6.914;2023-02-03T04:16:54;7.43;;;1.75;;
52724;SDS011;38621;52.830;6.914;2023-02-03T04:19:21;4.97;;;1.33;;
52724;SDS011;38621;52.830;6.914;2023-02-03T04:21:47;2.42;;;0.90;;
52724;SDS011;38621;52.830;6.914;2023-02-03T04:24:13;6.32;;;1.92;;
52724;SDS011;38621;52.830;6.914;2023-02-03T04:26:38;5.43;;;1.20;;
52724;SDS011;38621;52.830;6.914;2023-02-03T04:29:04;5.13;;;1.50;;
52724;SDS011;38621;52.830;6.914;2023-02-03T04:31:30;2.92;;;1.30;;
52724;SDS011;38621;52.830;6.914;2023-02-03T04:33:56;8.05;;;2.00;;
52724;SDS011;38621;52.830;6.914;2023-02-03T04:36:22;5.55;;;1.45;;
52724;SDS011;38621;52.830;6.914;2023-02-03T04:38:48;6.47;;;1.27;;
52724;SDS011;38621;52.830;6.914;2023-02-03T04:41:14;6.80;;;1.92;;
52724;SDS011;38621;52.830;6.914;2023-02-03T04:43:40;5.10;;;2.58;;
52724;SDS011;38621;52.830;6.914;2023-02-03T04:46:06;2.55;;;1.30;;
52724;SDS011;38621;52.830;6.914;2023-02-03T04:48:31;4.50;;;1.38;;
52724;SDS011;38621;52.830;6.914;2023-02-03T04:51:04;11.65;;;2.00;;
52724;SDS011;38621;52.830;6.914;2023-02-03T04:53:31;3.40;;;1.20;;
52724;SDS011;38621;52.830;6.914;2023-02-03T04:55:57;3.53;;;1.35;;
52724;SDS011;38621;52.830;6.914;2023-02-03T04:58:23;4.35;;;1.40;;
52724;SDS011;38621;52.830;6.914;2023-02-03T05:00:51;4.97;;;1.65;;
52724;SDS011;38621;52.830;6.914;2023-02-03T05:03:17;2.67;;;1.20;;
52724;SDS011;38621;52.830;6.914;2023-02-03T05:05:43;4.35;;;1.80;;
52724;SDS011;38621;52.830;6.914;2023-02-03T05:08:09;5.43;;;1.98;;
52724;SDS011;38621;52.830;6.914;2023-02-03T05:10:34;2.92;;;1.55;;
52724;SDS011;38621;52.830;6.914;2023-02-03T05:13:00;5.90;;;1.63;;
52724;SDS011;38621;52.830;6.914;2023-02-03T05:15:26;3.13;;;1.17;;
52724;SDS011;38621;52.830;6.914;2023-02-03T05:17:52;4.57;;;1.63;;
52724;SDS011;38621;52.830;6.914;2023-02-03T05:20:18;6.57;;;1.42;;
52724;SDS011;38621;52.830;6.914;2023-02-03T05:22:45;3.60;;;1.13;;
52724;SDS011;38621;52.830;6.914;2023-02-03T05:25:10;3.88;;;1.85;;
52724;SDS011;38621;52.830;6.914;2023-02-03T05:27:37;3.42;;;1.33;;
52724;SDS011;38621;52.830;6.914;2023-02-03T05:30:04;5.88;;;1.60;;
52724;SDS011;38621;52.830;6.914;2023-02-03T05:32:30;4.47;;;1.48;;
52724;SDS011;38621;52.830;6.914;2023-02-03T05:34:56;4.55;;;2.08;;
52724;SDS011;38621;52.830;6.914;2023-02-03T05:37:21;6.40;;;1.92;;
52724;SDS011;38621;52.830;6.914;2023-02-03T05:39:47;3.65;;;1.70;;
52724;SDS011;38621;52.830;6.914;2023-02-03T05:42:13;5.13;;;1.45;;
52724;SDS011;38621;52.830;6.914;2023-02-03T05:44:39;3.58;;;1.50;;
52724;SDS011;38621;52.830;6.914;2023-02-03T05:47:04;7.07;;;1.65;;
52724;SDS011;38621;52.830;6.914;2023-02-03T05:49:30;4.18;;;1.60;;
52724;SDS011;38621;52.830;6.914;2023-02-03T05:51:56;5.38;;;2.03;;
52724;SDS011;38621;52.830;6.914;2023-02-03T05:54:21;3.08;;;1.42;;
52724;SDS011;38621;52.830;6.914;2023-02-03T05:56:47;4.20;;;1.48;;
52724;SDS011;38621;52.830;6.914;2023-02-03T05:59:13;5.82;;;1.60;;
52724;SDS011;38621;52.830;6.914;2023-02-03T06:01:39;7.10;;;1.58;;
52724;SDS011;38621;52.830;6.914;2023-02-03T06:04:04;3.92;;;1.40;;
52724;SDS011;38621;52.830;6.914;2023-02-03T06:06:30;3.03;;;1.55;;
52724;SDS011;38621;52.830;6.914;2023-02-03T06:09:00;5.00;;;1.50;;
52724;SDS011;38621;52.830;6.914;2023-02-03T06:11:26;4.40;;;1.73;;
52724;SDS011;38621;52.830;6.914;2023-02-03T06:13:52;4.53;;;1.88;;
52724;SDS011;38621;52.830;6.914;2023-02-03T06:16:19;5.63;;;1.75;;
52724;SDS011;38621;52.830;6.914;2023-02-03T06:18:46;4.10;;;1.63;;
52724;SDS011;38621;52.830;6.914;2023-02-03T06:21:12;5.40;;;1.88;;
52724;SDS011;38621;52.830;6.914;2023-02-03T06:23:38;6.95;;;2.15;;
52724;SDS011;38621;52.830;6.914;2023-02-03T06:26:03;4.18;;;1.45;;
52724;SDS011;38621;52.830;6.914;2023-02-03T06:28:29;5.30;;;1.60;;
52724;SDS011;38621;52.830;6.914;2023-02-03T06:30:57;3.67;;;1.63;;
52724;SDS011;38621;52.830;6.914;2023-02-03T06:33:23;4.10;;;1.85;;
52724;SDS011;38621;52.830;6.914;2023-02-03T06:35:49;4.43;;;1.80;;
52724;SDS011;38621;52.830;6.914;2023-02-03T06:38:14;7.22;;;1.90;;
52724;SDS011;38621;52.830;6.914;2023-02-03T06:40:40;3.45;;;1.48;;
52724;SDS011;38621;52.830;6.914;2023-02-03T06:43:06;6.68;;;1.98;;
52724;SDS011;38621;52.830;6.914;2023-02-03T06:45:31;3.95;;;1.20;;
52724;SDS011;38621;52.830;6.914;2023-02-03T06:47:58;4.25;;;1.85;;
52724;SDS011;38621;52.830;6.914;2023-02-03T06:50:24;2.50;;;1.33;;
52724;SDS011;38621;52.830;6.914;2023-02-03T06:52:49;4.53;;;1.55;;
52724;SDS011;38621;52.830;6.914;2023-02-03T06:55:15;5.63;;;1.55;;
52724;SDS011;38621;52.830;6.914;2023-02-03T06:57:42;5.90;;;2.75;;
52724;SDS011;38621;52.830;6.914;2023-02-03T07:00:09;5.00;;;1.73;;
52724;SDS011;38621;52.830;6.914;2023-02-03T07:02:36;6.05;;;1.77;;
52724;SDS011;38621;52.830;6.914;2023-02-03T07:05:01;5.88;;;2.10;;
52724;SDS011;38621;52.830;6.914;2023-02-03T07:07:27;6.28;;;1.98;;
52724;SDS011;38621;52.830;6.914;2023-02-03T07:09:56;5.78;;;1.60;;
52724;SDS011;38621;52.830;6.914;2023-02-03T07:12:22;5.63;;;1.67;;
52724;SDS011;38621;52.830;6.914;2023-02-03T07:14:47;5.38;;;1.60;;
52724;SDS011;38621;52.830;6.914;2023-02-03T07:17:13;3.63;;;1.52;;
52724;SDS011;38621;52.830;6.914;2023-02-03T07:19:39;5.78;;;2.03;;
52724;SDS011;38621;52.830;6.914;2023-02-03T07:22:05;2.55;;;1.60;;
52724;SDS011;38621;52.830;6.914;2023-02-03T07:24:30;2.72;;;1.38;;
52724;SDS011;38621;52.830;6.914;2023-02-03T07:26:56;3.28;;;1.38;;
52724;SDS011;38621;52.830;6.914;2023-02-03T07:29:22;6.38;;;1.85;;
52724;SDS011;38621;52.830;6.914;2023-02-03T07:31:47;3.92;;;1.50;;
52724;SDS011;38621;52.830;6.914;2023-02-03T07:34:13;4.30;;;1.40;;
52724;SDS011;38621;52.830;6.914;2023-02-03T07:36:39;9.55;;;2.30;;
52724;SDS011;38621;52.830;6.914;2023-02-03T07:39:05;5.95;;;1.80;;
52724;SDS011;38621;52.830;6.914;2023-02-03T07:41:31;6.45;;;2.15;;
52724;SDS011;38621;52.830;6.914;2023-02-03T07:43:56;7.63;;;1.90;;
52724;SDS011;38621;52.830;6.914;2023-02-03T07:46:22;6.20;;;1.88;;
52724;SDS011;38621;52.830;6.914;2023-02-03T07:48:48;5.75;;;2.60;;
52724;SDS011;38621;52.830;6.914;2023-02-03T07:51:14;5.50;;;1.85;;
52724;SDS011;38621;52.830;6.914;2023-02-03T07:53:39;4.70;;;1.98;;
52724;SDS011;38621;52.830;6.914;2023-02-03T07:56:05;7.22;;;1.95;;
52724;SDS011;38621;52.830;6.914;2023-02-03T07:58:31;5.25;;;1.58;;
52724;SDS011;38621;52.830;6.914;2023-02-03T08:00:57;4.78;;;1.73;;
52724;SDS011;38621;52.830;6.914;2023-02-03T08:03:23;5.68;;;2.20;;
52724;SDS011;38621;52.830;6.914;2023-02-03T08:05:49;4.85;;;1.65;;
52724;SDS011;38621;52.830;6.914;2023-02-03T08:08:16;5.53;;;2.00;;
52724;SDS011;38621;52.830;6.914;2023-02-03T08:10:42;5.82;;;2.15;;
52724;SDS011;38621;52.830;6.914;2023-02-03T08:13:07;5.55;;;2.03;;
52724;SDS011;38621;52.830;6.914;2023-02-03T08:15:33;6.40;;;2.30;;
52724;SDS011;38621;52.830;6.914;2023-02-03T08:17:59;6.72;;;1.77;;
52724;SDS011;38621;52.830;6.914;2023-02-03T08:20:25;5.25;;;1.67;;
52724;SDS011;38621;52.830;6.914;2023-02-03T08:22:51;6.38;;;1.50;;
52724;SDS011;38621;52.830;6.914;2023-02-03T08:25:17;5.40;;;2.10;;
52724;SDS011;38621;52.830;6.914;2023-02-03T08:27:43;11.77;;;2.20;;
52724;SDS011;38621;52.830;6.914;2023-02-03T08:30:10;3.97;;;1.42;;
52724;SDS011;38621;52.830;6.914;2023-02-03T08:32:37;3.67;;;1.70;;
52724;SDS011;38621;52.830;6.914;2023-02-03T08:35:03;5.97;;;2.00;;
52724;SDS011;38621;52.830;6.914;2023-02-03T08:37:29;4.00;;;1.63;;
52724;SDS011;38621;52.830;6.914;2023-02-03T08:39:56;7.22;;;2.08;;
52724;SDS011;38621;52.830;6.914;2023-02-03T08:42:23;7.63;;;1.70;;
52724;SDS011;38621;52.830;6.914;2023-02-03T08:44:48;4.82;;;1.90;;
52724;SDS011;38621;52.830;6.914;2023-02-03T08:47:14;4.50;;;2.38;;
52724;SDS011;38621;52.830;6.914;2023-02-03T08:49:40;4.70;;;1.90;;
52724;SDS011;38621;52.830;6.914;2023-02-03T08:52:07;9.70;;;3.42;;
52724;SDS011;38621;52.830;6.914;2023-02-03T08:54:35;7.60;;;2.00;;
52724;SDS011;38621;52.830;6.914;2023-02-03T08:57:00;4.60;;;2.05;;
52724;SDS011;38621;52.830;6.914;2023-02-03T08:59:26;6.82;;;2.42;;
52724;SDS011;38621;52.830;6.914;2023-02-03T09:01:53;3.70;;;1.73;;
52724;SDS011;38621;52.830;6.914;2023-02-03T09:04:19;5.60;;;1.98;;
52724;SDS011;38621;52.830;6.914;2023-02-03T09:06:49;7.13;;;2.15;;
52724;SDS011;38621;52.830;6.914;2023-02-03T09:09:19;10.00;;;2.13;;
52724;SDS011;38621;52.830;6.914;2023-02-03T09:11:45;6.60;;;2.15;;
52724;SDS011;38621;52.830;6.914;2023-02-03T09:14:11;5.30;;;2.13;;
52724;SDS011;38621;52.830;6.914;2023-02-03T09:16:37;6.65;;;2.20;;
52724;SDS011;38621;52.830;6.914;2023-02-03T09:19:03;7.30;;;2.30;;
52724;SDS011;38621;52.830;6.914;2023-02-03T09:21:29;6.90;;;2.50;;
52724;SDS011;38621;52.830;6.914;2023-02-03T09:23:55;7.57;;;2.67;;
52724;SDS011;38621;52.830;6.914;2023-02-03T09:26:24;8.15;;;2.80;;
52724;SDS011;38621;52.830;6.914;2023-02-03T09:28:51;7.05;;;2.10;;
52724;SDS011;38621;52.830;6.914;2023-02-03T09:31:16;6.75;;;2.72;;
52724;SDS011;38621;52.830;6.914;2023-02-03T09:33:43;5.43;;;1.80;;
52724;SDS011;38621;52.830;6.914;2023-02-03T09:36:10;9.15;;;2.50;;
52724;SDS011;38621;52.830;6.914;2023-02-03T09:38:36;10.20;;;3.13;;
52724;SDS011;38621;52.830;6.914;2023-02-03T09:41:06;9.48;;;2.45;;
52724;SDS011;38621;52.830;6.914;2023-02-03T09:44:21;10.82;;;2.60;;
52724;SDS011;38621;52.830;6.914;2023-02-03T09:46:46;8.73;;;2.33;;
52724;SDS011;38621;52.830;6.914;2023-02-03T09:49:34;12.05;;;2.72;;
52724;SDS011;38621;52.830;6.914;2023-02-03T09:52:13;8.27;;;2.70;;
52724;SDS011;38621;52.830;6.914;2023-02-03T09:54:51;9.07;;;2.55;;
52724;SDS011;38621;52.830;6.914;2023-02-03T09:57:23;6.75;;;2.38;;
52724;SDS011;38621;52.830;6.914;2023-02-03T09:59:51;7.97;;;2.25;;
52724;SDS011;38621;52.830;6.914;2023-02-03T10:02:24;5.32;;;2.20;;
52724;SDS011;38621;52.830;6.914;2023-02-03T10:05:19;6.35;;;2.55;;
52724;SDS011;38621;52.830;6.914;2023-02-03T10:07:59;13.00;;;2.60;;
52724;SDS011;38621;52.830;6.914;2023-02-03T10:10:32;9.27;;;2.78;;
52724;SDS011;38621;52.830;6.914;2023-02-03T10:13:24;7.15;;;2.15;;
52724;SDS011;38621;52.830;6.914;2023-02-03T10:19:15;7.80;;;2.30;;
52724;SDS011;38621;52.830;6.914;2023-02-03T10:21:49;19.65;;;4.75;;
52724;SDS011;38621;52.830;6.914;2023-02-03T10:24:26;9.05;;;2.55;;
52724;SDS011;38621;52.830;6.914;2023-02-03T10:26:59;17.83;;;3.50;;
52724;SDS011;38621;52.830;6.914;2023-02-03T10:29:27;11.65;;;3.08;;
52724;SDS011;38621;52.830;6.914;2023-02-03T10:32:00;8.35;;;2.67;;
52724;SDS011;38621;52.830;6.914;2023-02-03T10:34:26;8.68;;;2.85;;
52724;SDS011;38621;52.830;6.914;2023-02-03T10:36:56;11.32;;;2.83;;
52724;SDS011;38621;52.830;6.914;2023-02-03T10:39:48;13.38;;;3.58;;
52724;SDS011;38621;52.830;6.914;2023-02-03T10:42:16;10.55;;;3.00;;
52724;SDS011;38621;52.830;6.914;2023-02-03T10:44:44;12.45;;;3.00;;
52724;SDS011;38621;52.830;6.914;2023-02-03T10:47:32;9.18;;;2.25;;
52724;SDS011;38621;52.830;6.914;2023-02-03T10:50:05;8.75;;;3.28;;
52724;SDS011;38621;52.830;6.914;2023-02-03T10:52:39;15.02;;;3.22;;
52724;SDS011;38621;52.830;6.914;2023-02-03T10:55:05;6.55;;;2.47;;
52724;SDS011;38621;52.830;6.914;2023-02-03T10:57:52;10.18;;;3.22;;
52724;SDS011;38621;52.830;6.914;2023-02-03T11:02:53;7.70;;;2.47;;
52724;SDS011;38621;52.830;6.914;2023-02-03T11:05:24;12.02;;;2.90;;
52724;SDS011;38621;52.830;6.914;2023-02-03T11:07:51;7.40;;;2.47;;
52724;SDS011;38621;52.830;6.914;2023-02-03T11:10:30;8.27;;;2.53;;
52724;SDS011;38621;52.830;6.914;2023-02-03T11:15:50;14.00;;;2.70;;
52724;SDS011;38621;52.830;6.914;2023-02-03T11:18:41;13.30;;;3.65;;
52724;SDS011;38621;52.830;6.914;2023-02-03T11:26:57;13.32;;;3.40;;
52724;SDS011;38621;52.830;6.914;2023-02-03T11:29:32;11.13;;;3.28;;
52724;SDS011;38621;52.830;6.914;2023-02-03T11:32:02;14.55;;;2.83;;
52724;SDS011;38621;52.830;6.914;2023-02-03T11:34:39;13.27;;;3.42;;
52724;SDS011;38621;52.830;6.914;2023-02-03T11:42:41;13.18;;;2.55;;
52724;SDS011;38621;52.830;6.914;2023-02-03T11:47:58;9.07;;;3.03;;
52724;SDS011;38621;52.830;6.914;2023-02-03T11:50:37;10.32;;;2.67;;
52724;SDS011;38621;52.830;6.914;2023-02-03T11:53:31;13.55;;;2.30;;
52724;SDS011;38621;52.830;6.914;2023-02-03T12:04:31;9.73;;;2.65;;
52724;SDS011;38621;52.830;6.914;2023-02-03T12:12:29;13.55;;;3.15;;
52724;SDS011;38621;52.830;6.914;2023-02-03T12:16:01;13.18;;;3.35;;
52724;SDS011;38621;52.830;6.914;2023-02-03T12:18:26;13.82;;;3.40;;
52724;SDS011;38621;52.830;6.914;2023-02-03T12:26:25;9.70;;;3.50;;
52724;SDS011;38621;52.830;6.914;2023-02-03T12:35:24;13.75;;;3.08;;
52724;SDS011;38621;52.830;6.914;2023-02-03T12:38:14;13.05;;;2.90;;
52724;SDS011;38621;52.830;6.914;2023-02-03T12:41:00;9.80;;;3.30;;
52724;SDS011;38621;52.830;6.914;2023-02-03T12:43:43;12.05;;;3.13;;
52724;SDS011;38621;52.830;6.914;2023-02-03T12:46:18;11.40;;;3.22;;
52724;SDS011;38621;52.830;6.914;2023-02-03T12:51:37;8.57;;;2.25;;
52724;SDS011;38621;52.830;6.914;2023-02-03T12:57:19;7.07;;;2.38;;
52724;SDS011;38621;52.830;6.914;2023-02-03T13:05:46;11.68;;;2.60;;
52724;SDS011;38621;52.830;6.914;2023-02-03T13:08:25;10.57;;;2.53;;
52724;SDS011;38621;52.830;6.914;2023-02-03T13:11:02;14.40;;;2.40;;
52724;SDS011;38621;52.830;6.914;2023-02-03T13:13:35;13.15;;;4.07;;
52724;SDS011;38621;52.830;6.914;2023-02-03T13:16:07;8.35;;;3.13;;
52724;SDS011;38621;52.830;6.914;2023-02-03T13:18:36;11.07;;;2.88;;
52724;SDS011;38621;52.830;6.914;2023-02-03T13:21:07;14.75;;;3.58;;
52724;SDS011;38621;52.830;6.914;2023-02-03T13:23:39;11.63;;;2.47;;
52724;SDS011;38621;52.830;6.914;2023-02-03T13:31:32;16.50;;;3.28;;
52724;SDS011;38621;52.830;6.914;2023-02-03T13:39:27;11.55;;;2.72;;
52724;SDS011;38621;52.830;6.914;2023-02-03T13:44:43;10.82;;;2.88;;
52724;SDS011;38621;52.830;6.914;2023-02-03T13:47:18;13.38;;;3.20;;
52724;SDS011;38621;52.830;6.914;2023-02-03T13:49:51;13.93;;;3.58;;
52724;SDS011;38621;52.830;6.914;2023-02-03T13:52:22;12.07;;;3.47;;
52724;SDS011;38621;52.830;6.914;2023-02-03T13:54:51;14.52;;;3.40;;
52724;SDS011;38621;52.830;6.914;2023-02-03T13:57:28;17.27;;;3.05;;
52724;SDS011;38621;52.830;6.914;2023-02-03T13:59:58;13.95;;;3.58;;
52724;SDS011;38621;52.830;6.914;2023-02-03T14:04:52;16.52;;;4.30;;
52724;SDS011;38621;52.830;6.914;2023-02-03T14:12:53;13.93;;;2.70;;
52724;SDS011;38621;52.830;6.914;2023-02-03T14:15:22;10.02;;;3.72;;
52724;SDS011;38621;52.830;6.914;2023-02-03T14:18:00;14.50;;;4.10;;
52724;SDS011;38621;52.830;6.914;2023-02-03T14:22:52;14.23;;;3.13;;
52724;SDS011;38621;52.830;6.914;2023-02-03T14:25:41;11.32;;;2.65;;
52724;SDS011;38621;52.830;6.914;2023-02-03T14:28:15;7.20;;;2.60;;
52724;SDS011;38621;52.830;6.914;2023-02-03T14:39:21;9.32;;;2.38;;
52724;SDS011;38621;52.830;6.914;2023-02-03T14:53:03;9.02;;;2.30;;
52724;SDS011;38621;52.830;6.914;2023-02-03T14:58:05;9.55;;;1.70;;
52724;SDS011;38621;52.830;6.914;2023-02-03T15:00:38;9.18;;;2.13;;
52724;SDS011;38621;52.830;6.914;2023-02-03T15:10:53;6.22;;;2.33;;
52724;SDS011;38621;52.830;6.914;2023-02-03T15:13:29;9.13;;;2.47;;
52724;SDS011;38621;52.830;6.914;2023-02-03T15:15:56;6.38;;;2.30;;
52724;SDS011;38621;52.830;6.914;2023-02-03T15:18:29;10.25;;;2.30;;
52724;SDS011;38621;52.830;6.914;2023-02-03T15:20:55;11.38;;;2.00;;
52724;SDS011;38621;52.830;6.914;2023-02-03T15:23:23;12.23;;;2.00;;
52724;SDS011;38621;52.830;6.914;2023-02-03T15:25:52;6.18;;;2.03;;
52724;SDS011;38621;52.830;6.914;2023-02-03T15:28:22;10.02;;;2.58;;
52724;SDS011;38621;52.830;6.914;2023-02-03T15:31:32;9.32;;;2.28;;
52724;SDS011;38621;52.830;6.914;2023-02-03T15:33:43;12.43;;;2.33;;
52724;SDS011;38621;52.830;6.914;2023-02-03T15:36:21;10.27;;;2.08;;
52724;SDS011;38621;52.830;6.914;2023-02-03T15:38:54;7.70;;;1.80;;
52724;SDS011;38621;52.830;6.914;2023-02-03T15:41:26;9.57;;;2.00;;
52724;SDS011;38621;52.830;6.914;2023-02-03T15:43:57;8.32;;;1.85;;
52724;SDS011;38621;52.830;6.914;2023-02-03T15:46:39;13.52;;;2.65;;
52724;SDS011;38621;52.830;6.914;2023-02-03T15:49:13;8.90;;;1.95;;
52724;SDS011;38621;52.830;6.914;2023-02-03T15:54:20;9.60;;;2.13;;
52724;SDS011;38621;52.830;6.914;2023-02-03T15:56:55;8.15;;;1.83;;
52724;SDS011;38621;52.830;6.914;2023-02-03T15:59:23;9.70;;;2.05;;
52724;SDS011;38621;52.830;6.914;2023-02-03T16:02:00;10.73;;;3.47;;
52724;SDS011;38621;52.830;6.914;2023-02-03T16:04:36;11.10;;;2.47;;
52724;SDS011;38621;52.830;6.914;2023-02-03T16:07:01;5.97;;;1.67;;
52724;SDS011;38621;52.830;6.914;2023-02-03T16:12:02;7.65;;;2.47;;
52724;SDS011;38621;52.830;6.914;2023-02-03T16:14:37;9.57;;;2.03;;
52724;SDS011;38621;52.830;6.914;2023-02-03T16:17:02;7.95;;;2.30;;
52724;SDS011;38621;52.830;6.914;2023-02-03T16:19:29;11.15;;;1.75;;
52724;SDS011;38621;52.830;6.914;2023-02-03T16:22:24;6.90;;;1.70;;
52724;SDS011;38621;52.830;6.914;2023-02-03T16:24:52;5.82;;;2.50;;
52724;SDS011;38621;52.830;6.914;2023-02-03T16:27:39;8.40;;;2.20;;
52724;SDS011;38621;52.830;6.914;2023-02-03T16:32:59;7.05;;;1.98;;
52724;SDS011;38621;52.830;6.914;2023-02-03T16:36:09;6.15;;;1.70;;
52724;SDS011;38621;52.830;6.914;2023-02-03T16:38:56;9.48;;;2.17;;
52724;SDS011;38621;52.830;6.914;2023-02-03T16:41:44;7.55;;;2.00;;
52724;SDS011;38621;52.830;6.914;2023-02-03T16:44:29;7.93;;;2.15;;
52724;SDS011;38621;52.830;6.914;2023-02-03T16:47:24;8.43;;;2.03;;
52724;SDS011;38621;52.830;6.914;2023-02-03T16:50:13;9.27;;;1.90;;
52724;SDS011;38621;52.830;6.914;2023-02-03T16:52:59;12.95;;;2.30;;
52724;SDS011;38621;52.830;6.914;2023-02-03T16:55:24;9.52;;;3.13;;
52724;SDS011;38621;52.830;6.914;2023-02-03T16:57:50;9.65;;;3.42;;
52724;SDS011;38621;52.830;6.914;2023-02-03T17:00:16;9.25;;;2.72;;
52724;SDS011;38621;52.830;6.914;2023-02-03T17:02:44;10.60;;;3.00;;
52724;SDS011;38621;52.830;6.914;2023-02-03T17:05:10;13.60;;;3.25;;
52724;SDS011;38621;52.830;6.914;2023-02-03T17:07:36;9.40;;;2.67;;
52724;SDS011;38621;52.830;6.914;2023-02-03T17:10:01;15.02;;;3.15;;
52724;SDS011;38621;52.830;6.914;2023-02-03T17:12:27;11.98;;;2.95;;
52724;SDS011;38621;52.830;6.914;2023-02-03T17:14:55;11.70;;;3.13;;
52724;SDS011;38621;52.830;6.914;2023-02-03T17:17:22;10.35;;;2.83;;
52724;SDS011;38621;52.830;6.914;2023-02-03T17:19:48;10.82;;;2.70;;
52724;SDS011;38621;52.830;6.914;2023-02-03T17:22:14;11.85;;;2.55;;
52724;SDS011;38621;52.830;6.914;2023-02-03T17:24:40;10.32;;;3.08;;
52724;SDS011;38621;52.830;6.914;2023-02-03T17:27:05;12.95;;;4.03;;
52724;SDS011;38621;52.830;6.914;2023-02-03T17:29:31;9.57;;;3.38;;